Time;durP1;ratioP1;P1;durP2;ratioP2;P2;SDS_P1;SDS_P2;PMS_P1;PMS_P2;Temp;Humidity;BMP_temperature;BMP_pressure;BME280_temperature;BME280_humidity;BME280_pressure;Samples;Min_cycle;Max_cycle;Signal;HPM_P1;HPM_P2
2023/11/03 00:01:26;;;;;;;2.80;1.37;;;9.20;99.90;;;;;;5035348;28;20399;-72
2023/11/03 00:03:53;;;;;;;4.03;1.30;;;9.20;99.90;;;;;;5035190;28;20478;-72
2023/11/03 00:06:19;;;;;;;2.63;1.07;;;9.20;99.90;;;;;;5017533;28;20200;-72
2023/11/03 00:08:44;;;;;;;2.40;0.80;;;9.10;99.90;;;;;;5046048;28;20411;-73
2023/11/03 00:11:10;;;;;;;2.57;1.07;;;9.10;99.90;;;;;;5055320;28;20177;-72
2023/11/03 00:13:36;;;;;;;1.43;1.10;;;9.10;99.90;;;;;;5055045;28;20270;-72
2023/11/03 00:16:03;;;;;;;2.60;1.00;;;9.00;99.90;;;;;;5055257;28;20839;-72
2023/11/03 00:18:29;;;;;;;5.07;1.20;;;8.90;99.90;;;;;;5047202;28;20174;-72
2023/11/03 00:20:55;;;;;;;1.90;1.30;;;8.80;99.90;;;;;;5035982;28;20487;-72
2023/11/03 00:23:22;;;;;;;1.97;1.43;;;8.80;99.90;;;;;;5035700;28;20983;-72
2023/11/03 00:25:49;;;;;;;2.63;1.20;;;8.80;99.90;;;;;;5035046;28;20191;-73
2023/11/03 00:28:15;;;;;;;4.90;1.07;;;8.90;99.90;;;;;;5041537;28;20409;-73
2023/11/03 00:30:41;;;;;;;1.53;1.00;;;9.00;99.90;;;;;;5036823;28;20920;-73
2023/11/03 00:33:08;;;;;;;3.30;2.00;;;8.90;99.90;;;;;;5051496;28;20226;-72
2023/11/03 00:35:34;;;;;;;3.53;1.70;;;8.90;99.90;;;;;;5053843;28;20176;-72
2023/11/03 00:38:00;;;;;;;2.33;1.37;;;8.80;99.90;;;;;;5050526;28;20402;-73
2023/11/03 00:40:25;;;;;;;2.80;1.50;;;8.80;99.90;;;;;;5017211;28;20421;-72
2023/11/03 00:42:51;;;;;;;6.07;1.40;;;8.90;99.90;;;;;;5034795;28;20552;-73
2023/11/03 00:45:17;;;;;;;7.93;4.30;;;8.90;99.90;;;;;;5034580;28;20191;-73
2023/11/03 00:47:43;;;;;;;7.83;3.60;;;8.80;99.90;;;;;;5036515;28;20317;-73
2023/11/03 00:50:09;;;;;;;6.33;3.40;;;8.80;99.90;;;;;;5054485;28;20397;-72
2023/11/03 00:52:35;;;;;;;5.77;2.97;;;8.80;99.90;;;;;;5054602;28;20478;-73
2023/11/03 00:55:06;;;;;;;4.13;2.90;;;8.80;99.90;;;;;;5054827;28;20762;-72
2023/11/03 00:57:32;;;;;;;3.50;2.30;;;8.70;99.90;;;;;;5054403;28;20425;-73
2023/11/03 00:59:58;;;;;;;5.23;2.40;;;8.70;99.90;;;;;;5034352;28;20776;-73
2023/11/03 01:02:23;;;;;;;5.10;2.20;;;8.60;99.90;;;;;;5033842;28;20426;-73
2023/11/03 01:04:49;;;;;;;5.03;2.40;;;8.60;99.90;;;;;;5035218;28;20641;-73
2023/11/03 01:07:14;;;;;;;4.53;1.80;;;8.60;99.90;;;;;;5035047;28;20167;-73
2023/11/03 01:09:41;;;;;;;5.67;2.73;;;8.50;99.90;;;;;;5051908;28;20462;-73
2023/11/03 01:12:07;;;;;;;5.40;2.03;;;8.50;99.90;;;;;;5054010;28;20249;-73
2023/11/03 01:14:33;;;;;;;5.23;2.43;;;8.40;99.90;;;;;;5053937;28;20423;-73
2023/11/03 01:16:58;;;;;;;2.07;1.40;;;8.40;99.90;;;;;;5054173;28;20401;-71
2023/11/03 01:19:25;;;;;;;3.20;1.87;;;8.40;99.90;;;;;;5038548;28;20916;-72
2023/11/03 01:21:51;;;;;;;4.47;2.07;;;8.40;99.90;;;;;;5033920;28;20163;-72
2023/11/03 01:24:17;;;;;;;3.43;2.10;;;8.40;99.90;;;;;;5033872;28;20490;-73
2023/11/03 01:26:43;;;;;;;2.67;1.40;;;8.20;99.90;;;;;;5034770;28;20406;-73
2023/11/03 01:29:08;;;;;;;3.20;1.80;;;8.30;99.90;;;;;;5046993;28;20181;-72
2023/11/03 01:31:36;;;;;;;3.70;1.40;;;8.20;99.90;;;;;;5053579;28;20487;-72
2023/11/03 01:34:05;;;;;;;6.13;1.53;;;8.30;99.90;;;;;;5053463;28;20195;-72
2023/11/03 01:36:31;;;;;;;4.30;1.40;;;8.30;99.90;;;;;;5053743;28;20412;-72
2023/11/03 01:38:57;;;;;;;3.93;1.80;;;8.30;99.90;;;;;;5042423;28;20820;-72
2023/11/03 01:41:22;;;;;;;2.63;1.40;;;8.00;99.90;;;;;;5015965;28;20467;-72
2023/11/03 01:44:11;;;;;;;3.30;1.50;;;8.00;99.90;;;;;;5033226;28;20429;-72
2023/11/03 01:46:38;;;;;;;6.17;1.57;;;8.00;99.90;;;;;;5034057;28;20250;-72
2023/11/03 01:49:05;;;;;;;3.60;1.40;;;8.00;99.90;;;;;;5039202;28;20406;-71
2023/11/03 01:51:32;;;;;;;2.40;1.17;;;8.00;99.90;;;;;;5033227;28;20416;-73
2023/11/03 01:53:58;;;;;;;2.50;1.20;;;8.00;99.90;;;;;;5034186;28;20437;-72
2023/11/03 01:56:25;;;;;;;4.03;1.40;;;8.10;99.90;;;;;;5033580;28;20459;-72
2023/11/03 01:58:51;;;;;;;2.67;1.23;;;8.20;99.90;;;;;;5043234;28;20416;-73
2023/11/03 02:01:17;;;;;;;5.57;1.50;;;8.20;99.90;;;;;;5053016;28;20421;-72
2023/11/03 02:03:43;;;;;;;2.57;1.27;;;8.20;99.90;;;;;;5034871;28;20536;-72
2023/11/03 02:06:08;;;;;;;3.23;1.20;;;8.20;99.90;;;;;;5052955;28;20436;-72
2023/11/03 02:08:34;;;;;;;5.73;1.50;;;8.20;99.90;;;;;;5045400;28;20167;-72
2023/11/03 02:11:00;;;;;;;2.60;1.47;;;8.20;99.90;;;;;;5033618;28;20193;-72
2023/11/03 02:13:29;;;;;;;5.70;1.57;;;8.20;99.90;;;;;;5033280;28;20213;-73
2023/11/03 02:15:55;;;;;;;2.87;1.50;;;8.10;99.90;;;;;;5033293;28;20178;-72
2023/11/03 02:18:20;;;;;;;3.97;1.50;;;8.10;99.90;;;;;;5038541;28;20415;-71
2023/11/03 02:20:46;;;;;;;4.23;1.33;;;8.00;99.90;;;;;;5052887;28;20177;-72
2023/11/03 02:23:11;;;;;;;4.13;1.50;;;7.90;99.90;;;;;;5035274;28;20211;-72
2023/11/03 02:25:37;;;;;;;1.83;0.83;;;7.90;99.90;;;;;;5053068;28;20706;-73
2023/11/03 02:28:03;;;;;;;2.73;1.30;;;7.90;99.90;;;;;;5049560;28;20254;-71
2023/11/03 02:30:28;;;;;;;4.37;1.30;;;7.90;99.90;;;;;;5014781;28;20556;-73
2023/11/03 02:32:54;;;;;;;3.23;1.30;;;7.90;99.90;;;;;;5035210;28;20941;-73
2023/11/03 02:35:19;;;;;;;4.33;1.27;;;7.90;99.90;;;;;;5032873;28;20232;-72
2023/11/03 02:37:45;;;;;;;2.77;1.40;;;7.90;99.90;;;;;;5033016;28;20181;-72
2023/11/03 02:40:12;;;;;;;4.23;1.40;;;8.00;99.90;;;;;;5052705;28;20227;-71
2023/11/03 02:42:37;;;;;;;3.77;1.10;;;8.00;99.90;;;;;;5052679;28;20439;-72
2023/11/03 02:45:04;;;;;;;6.10;1.43;;;8.10;99.90;;;;;;5052722;28;20485;-71
2023/11/03 02:47:29;;;;;;;2.33;1.33;;;8.20;99.90;;;;;;5052577;28;20166;-72
2023/11/03 02:49:55;;;;;;;2.87;1.53;;;8.20;99.90;;;;;;5034220;28;20428;-72
2023/11/03 02:52:20;;;;;;;7.17;1.57;;;8.30;99.90;;;;;;5032627;28;20232;-73
2023/11/03 02:54:46;;;;;;;3.00;1.40;;;8.30;99.90;;;;;;5014785;28;20214;-73
2023/11/03 02:57:11;;;;;;;7.60;1.60;;;8.30;99.90;;;;;;5032603;28;20537;-72
2023/11/03 02:59:37;;;;;;;2.23;1.27;;;8.30;99.90;;;;;;5050300;28;20258;-72
2023/11/03 03:02:06;;;;;;;2.60;1.00;;;8.30;99.90;;;;;;5056261;28;20174;-69
2023/11/03 03:04:31;;;;;;;5.13;1.30;;;8.30;99.90;;;;;;5056555;28;20643;-71
2023/11/03 03:06:57;;;;;;;3.50;1.20;;;8.40;99.90;;;;;;5037343;28;20419;-72
2023/11/03 03:09:23;;;;;;;2.80;1.50;;;8.40;99.90;;;;;;5049670;28;20576;-73
2023/11/03 03:11:49;;;;;;;3.67;1.43;;;8.40;99.90;;;;;;5056259;28;20210;-73
2023/11/03 03:14:14;;;;;;;2.70;1.40;;;8.40;99.90;;;;;;5056470;28;20440;-73
2023/11/03 03:16:40;;;;;;;3.03;1.17;;;8.40;99.90;;;;;;5056267;28;20186;-72
2023/11/03 03:19:05;;;;;;;7.40;2.33;;;8.40;99.90;;;;;;5045054;28;20182;-71
2023/11/03 03:21:31;;;;;;;1.73;0.97;;;8.40;99.90;;;;;;5036038;28;20250;-71
2023/11/03 03:23:58;;;;;;;2.03;1.20;;;8.50;99.90;;;;;;5035523;28;20325;-72
2023/11/03 03:26:23;;;;;;;2.30;1.10;;;8.40;99.90;;;;;;5036110;28;20846;-72
2023/11/03 03:28:49;;;;;;;1.30;0.90;;;8.40;99.90;;;;;;5044886;28;20177;-72
2023/11/03 03:31:14;;;;;;;2.03;1.03;;;8.40;99.90;;;;;;5056226;28;20197;-73
2023/11/03 03:33:40;;;;;;;3.40;1.43;;;8.40;99.90;;;;;;5056113;28;20183;-72
2023/11/03 03:36:07;;;;;;;1.67;1.00;;;8.40;99.90;;;;;;5056166;28;20249;-71
2023/11/03 03:38:33;;;;;;;2.57;1.20;;;8.40;99.90;;;;;;5050276;28;20174;-72
2023/11/03 03:40:58;;;;;;;3.57;0.93;;;8.30;99.90;;;;;;5036081;28;20406;-72
2023/11/03 03:43:24;;;;;;;4.20;1.40;;;8.40;99.90;;;;;;5035863;28;20249;-72
2023/11/03 03:45:49;;;;;;;2.50;1.37;;;8.60;99.90;;;;;;5036075;28;20201;-72
2023/11/03 03:48:15;;;;;;;3.03;1.60;;;8.60;99.90;;;;;;5039319;28;20171;-72
2023/11/03 03:50:40;;;;;;;2.50;1.27;;;8.60;99.90;;;;;;5056043;28;20178;-72
2023/11/03 03:53:06;;;;;;;3.97;1.27;;;8.60;99.90;;;;;;5053311;28;20683;-72
2023/11/03 03:55:31;;;;;;;2.73;1.37;;;8.50;99.90;;;;;;5035583;28;20641;-73
2023/11/03 03:57:57;;;;;;;2.10;1.20;;;8.50;99.90;;;;;;5036566;28;20178;-73
2023/11/03 04:00:23;;;;;;;1.80;1.10;;;8.50;99.90;;;;;;5055499;28;20177;-71
2023/11/03 04:02:48;;;;;;;2.40;1.33;;;8.60;99.90;;;;;;5056641;28;20208;-74
2023/11/03 04:05:14;;;;;;;2.23;1.13;;;8.60;99.90;;;;;;5055439;28;20453;-72
2023/11/03 04:07:40;;;;;;;2.13;1.37;;;8.60;99.90;;;;;;5055590;28;20641;-72
2023/11/03 04:10:06;;;;;;;8.47;1.70;;;8.60;99.90;;;;;;5036794;28;20717;-74
2023/11/03 04:12:31;;;;;;;3.23;1.43;;;8.60;99.90;;;;;;5035217;28;20655;-73
2023/11/03 04:14:57;;;;;;;6.27;1.53;;;8.60;99.90;;;;;;5035550;28;20420;-72
2023/11/03 04:17:22;;;;;;;3.93;1.40;;;8.80;99.90;;;;;;5035443;28;20237;-72
2023/11/03 04:19:48;;;;;;;4.60;1.50;;;8.70;99.90;;;;;;5051001;28;20193;-72
2023/11/03 04:22:14;;;;;;;3.43;1.40;;;8.80;99.90;;;;;;5055571;28;20175;-72
2023/11/03 04:24:39;;;;;;;5.30;1.40;;;8.90;99.90;;;;;;5055220;28;20192;-72
2023/11/03 04:27:05;;;;;;;5.53;1.67;;;8.90;99.90;;;;;;5054895;28;20471;-72
2023/11/03 04:29:31;;;;;;;2.83;1.23;;;8.60;99.90;;;;;;5038399;28;20170;-72
2023/11/03 04:31:56;;;;;;;4.30;1.43;;;8.60;99.90;;;;;;5035671;28;20183;-73
2023/11/03 04:34:22;;;;;;;3.57;1.40;;;8.60;99.90;;;;;;5034885;28;20206;-72
2023/11/03 04:36:47;;;;;;;3.10;1.40;;;8.80;99.90;;;;;;5034831;28;20168;-73
2023/11/03 04:39:13;;;;;;;2.10;1.07;;;9.00;99.90;;;;;;5045554;28;20612;-73
2023/11/03 04:41:39;;;;;;;2.50;1.20;;;9.20;99.90;;;;;;5054837;28;20565;-73
2023/11/03 04:44:05;;;;;;;6.30;2.57;;;9.30;99.90;;;;;;5054711;28;20198;-72
2023/11/03 04:46:30;;;;;;;2.23;1.13;;;9.30;99.90;;;;;;5036627;28;20167;-73
2023/11/03 04:48:57;;;;;;;4.70;1.50;;;9.40;99.90;;;;;;5046401;28;20481;-72
2023/11/03 04:51:23;;;;;;;2.93;1.20;;;9.50;99.90;;;;;;5034624;28;20257;-73
2023/11/03 04:53:49;;;;;;;2.60;1.63;;;9.50;99.90;;;;;;5034398;28;20872;-72
2023/11/03 04:56:15;;;;;;;3.90;1.73;;;9.60;99.90;;;;;;5034092;28;20182;-73
2023/11/03 04:58:41;;;;;;;2.70;1.63;;;9.60;99.90;;;;;;5040219;28;20571;-73
2023/11/03 05:01:06;;;;;;;3.63;1.83;;;9.60;99.90;;;;;;5036489;28;20171;-73
2023/11/03 05:03:32;;;;;;;6.00;1.50;;;9.50;99.90;;;;;;5054353;28;20434;-71
2023/11/03 05:05:57;;;;;;;2.13;1.50;;;9.50;99.90;;;;;;5054026;28;20233;-73
2023/11/03 05:08:23;;;;;;;2.60;1.57;;;9.40;99.90;;;;;;5050665;28;20173;-73
2023/11/03 05:10:49;;;;;;;15.13;2.07;;;9.40;99.90;;;;;;5034355;28;20172;-72
2023/11/03 05:13:16;;;;;;;3.77;1.33;;;9.40;99.90;;;;;;5034104;28;20774;-72
2023/11/03 05:15:42;;;;;;;5.13;1.70;;;9.50;99.90;;;;;;5034214;28;20181;-73
2023/11/03 05:18:10;;;;;;;3.70;1.70;;;9.50;99.90;;;;;;5035132;28;20414;-72
2023/11/03 05:20:37;;;;;;;4.37;1.50;;;9.40;99.90;;;;;;5054128;28;20417;-73
2023/11/03 05:23:02;;;;;;;4.50;1.30;;;9.30;99.90;;;;;;5053195;28;20964;-71
2023/11/03 05:25:28;;;;;;;4.50;2.33;;;9.10;99.90;;;;;;5053884;28;20457;-72
2023/11/03 05:27:54;;;;;;;2.70;1.67;;;9.20;99.90;;;;;;5053774;28;20183;-73
2023/11/03 05:30:21;;;;;;;3.10;1.30;;;9.20;99.90;;;;;;5034792;28;20179;-72
2023/11/03 05:32:47;;;;;;;3.97;2.00;;;9.20;99.90;;;;;;5034130;28;20181;-72
2023/11/03 05:35:13;;;;;;;3.50;1.27;;;9.10;99.90;;;;;;5033986;28;20412;-72
2023/11/03 05:37:38;;;;;;;3.43;1.43;;;9.10;99.90;;;;;;5033694;28;20433;-72
2023/11/03 05:40:05;;;;;;;2.23;1.60;;;9.10;99.90;;;;;;5050538;28;20182;-72
2023/11/03 05:42:31;;;;;;;9.70;3.27;;;9.10;99.90;;;;;;5053845;28;20203;-73
2023/11/03 05:44:57;;;;;;;4.40;1.57;;;9.10;99.90;;;;;;5053391;28;20864;-72
2023/11/03 05:47:22;;;;;;;2.50;1.90;;;9.10;99.90;;;;;;5053563;28;20166;-72
2023/11/03 05:49:48;;;;;;;4.37;1.53;;;9.00;99.90;;;;;;5038787;28;20529;-72
2023/11/03 05:52:13;;;;;;;3.50;1.60;;;9.10;99.90;;;;;;5033444;28;20206;-72
2023/11/03 05:54:39;;;;;;;2.30;1.30;;;9.10;99.90;;;;;;5033636;28;20179;-72
2023/11/03 05:57:05;;;;;;;4.43;1.60;;;9.00;99.90;;;;;;5015699;28;20171;-72
2023/11/03 05:59:30;;;;;;;3.13;1.30;;;8.90;99.90;;;;;;5045168;28;20179;-72
2023/11/03 06:01:56;;;;;;;6.43;1.40;;;8.90;99.90;;;;;;5052396;28;20176;-73
2023/11/03 06:04:21;;;;;;;4.93;1.57;;;9.00;99.90;;;;;;5033740;28;20225;-72
2023/11/03 06:06:48;;;;;;;4.93;1.73;;;9.00;99.90;;;;;;5033112;28;20258;-72
2023/11/03 06:09:14;;;;;;;5.00;1.20;;;9.10;99.90;;;;;;5042649;28;20168;-72
2023/11/03 06:11:40;;;;;;;2.20;0.90;;;9.20;99.90;;;;;;5053105;28;20489;-73
2023/11/03 06:14:05;;;;;;;5.80;1.73;;;9.20;99.90;;;;;;5052948;28;20421;-73
2023/11/03 06:16:34;;;;;;;5.57;1.93;;;9.10;99.90;;;;;;5035288;28;20170;-72
2023/11/03 06:19:00;;;;;;;5.23;1.83;;;9.10;99.90;;;;;;5045688;28;20363;-72
2023/11/03 06:21:26;;;;;;;2.40;1.50;;;9.10;99.90;;;;;;5032988;28;20414;-73
2023/11/03 06:23:52;;;;;;;1.87;1.27;;;9.10;99.90;;;;;;5014782;28;20552;-72
2023/11/03 06:26:18;;;;;;;1.70;1.10;;;9.30;99.90;;;;;;5033092;28;20174;-73
2023/11/03 06:28:44;;;;;;;5.03;1.10;;;9.30;99.90;;;;;;5037966;28;20496;-71
2023/11/03 06:31:10;;;;;;;3.13;1.23;;;9.40;99.90;;;;;;5053738;28;20687;-72
2023/11/03 06:33:36;;;;;;;4.30;1.33;;;9.50;99.90;;;;;;5048926;28;20688;-73
2023/11/03 06:36:02;;;;;;;2.97;1.23;;;9.50;99.90;;;;;;5052724;28;20398;-72
2023/11/03 06:38:29;;;;;;;2.40;1.20;;;9.70;99.90;;;;;;5049723;28;20484;-72
2023/11/03 06:40:56;;;;;;;3.33;1.27;;;9.70;99.90;;;;;;5032523;28;20434;-72
2023/11/03 06:43:21;;;;;;;3.30;1.60;;;9.50;99.90;;;;;;5014767;28;20523;-73
2023/11/03 06:45:47;;;;;;;1.67;1.17;;;9.50;99.90;;;;;;5032470;28;20614;-71
2023/11/03 06:48:13;;;;;;;3.90;1.37;;;9.50;99.90;;;;;;5033126;28;20167;-73
2023/11/03 06:50:38;;;;;;;2.23;1.40;;;9.50;99.90;;;;;;5052276;28;20177;-72
2023/11/03 06:53:04;;;;;;;3.97;1.30;;;9.60;99.90;;;;;;5052541;28;20184;-72
2023/11/03 06:55:30;;;;;;;2.20;1.37;;;9.70;99.90;;;;;;5052516;28;20174;-73
2023/11/03 06:57:55;;;;;;;3.37;1.30;;;9.90;99.90;;;;;;5052272;28;20247;-72
2023/11/03 07:00:21;;;;;;;3.60;1.60;;;9.90;99.90;;;;;;5034592;28;20451;-73
2023/11/03 07:02:46;;;;;;;5.23;1.30;;;9.90;99.90;;;;;;5015237;28;20194;-72
2023/11/03 07:05:13;;;;;;;2.37;1.10;;;9.50;99.90;;;;;;5031578;28;20190;-72
2023/11/03 07:07:39;;;;;;;1.50;0.90;;;9.60;99.90;;;;;;5014593;28;20172;-72
2023/11/03 07:10:06;;;;;;;3.53;1.80;;;9.80;99.90;;;;;;5047916;28;20459;-72
2023/11/03 07:12:32;;;;;;;3.17;1.40;;;9.80;99.90;;;;;;5052477;28;20187;-72
2023/11/03 07:14:57;;;;;;;2.20;1.20;;;9.90;99.90;;;;;;5052387;28;20409;-73
2023/11/03 07:17:23;;;;;;;4.37;1.43;;;9.90;99.90;;;;;;5052180;28;20611;-72
2023/11/03 07:19:48;;;;;;;3.30;1.50;;;9.50;99.90;;;;;;5038911;28;20240;-73
2023/11/03 07:22:17;;;;;;;3.20;1.40;;;9.70;99.90;;;;;;5031974;28;20175;-73
2023/11/03 07:24:44;;;;;;;4.37;1.70;;;9.80;99.90;;;;;;5032491;28;20724;-73
2023/11/03 07:27:09;;;;;;;2.13;1.20;;;9.80;99.90;;;;;;5031935;28;20398;-72
2023/11/03 07:29:35;;;;;;;4.63;1.37;;;9.90;99.90;;;;;;5043335;28;20402;-72
2023/11/03 07:32:01;;;;;;;7.00;2.00;;;10.00;99.90;;;;;;5051800;28;20312;-72
2023/11/03 07:34:27;;;;;;;6.07;1.60;;;10.00;99.90;;;;;;5052334;28;20263;-72
2023/11/03 07:36:52;;;;;;;2.10;1.70;;;10.00;99.90;;;;;;5052532;28;20174;-72
2023/11/03 07:39:18;;;;;;;4.90;1.80;;;10.00;99.90;;;;;;5043223;28;20288;-72
2023/11/03 07:41:44;;;;;;;2.27;1.40;;;10.10;99.90;;;;;;5032432;28;20533;-72
2023/11/03 07:44:12;;;;;;;2.30;1.40;;;9.90;99.90;;;;;;5031830;28;20446;-73
2023/11/03 07:46:38;;;;;;;6.87;1.80;;;10.00;99.90;;;;;;5035755;28;20233;-72
2023/11/03 07:49:03;;;;;;;3.47;1.60;;;10.00;99.90;;;;;;5042246;28;20909;-72
2023/11/03 07:51:30;;;;;;;3.57;1.20;;;10.10;99.90;;;;;;5055494;28;20643;-73
2023/11/03 07:53:56;;;;;;;3.00;1.27;;;10.20;99.90;;;;;;5055544;28;20190;-72
2023/11/03 07:56:22;;;;;;;3.50;1.30;;;10.30;99.90;;;;;;5055531;28;20475;-72
2023/11/03 07:58:48;;;;;;;3.80;1.60;;;10.30;99.90;;;;;;5051161;28;20895;-72
2023/11/03 08:01:14;;;;;;;4.03;2.40;;;10.10;99.90;;;;;;5035481;28;20644;-72
2023/11/03 08:03:40;;;;;;;3.07;1.60;;;10.20;99.90;;;;;;5040139;28;20185;-72
2023/11/03 08:06:06;;;;;;;3.73;1.63;;;10.20;99.90;;;;;;5055120;28;20447;-72
2023/11/03 08:08:32;;;;;;;5.17;3.93;;;10.10;99.90;;;;;;5053266;28;20881;-73
2023/11/03 08:10:58;;;;;;;33.30;23.80;;;10.20;99.90;;;;;;5035641;28;20177;-73
2023/11/03 08:13:24;;;;;;;11.27;5.67;;;10.30;99.90;;;;;;5035514;28;20429;-72
2023/11/03 08:15:50;;;;;;;5.20;3.00;;;10.40;99.90;;;;;;5035050;28;20641;-72
2023/11/03 08:18:16;;;;;;;4.60;2.70;;;10.50;99.90;;;;;;5017315;28;20171;-71
2023/11/03 08:20:42;;;;;;;3.33;2.70;;;10.50;99.90;;;;;;5054899;28;20778;-73
2023/11/03 08:23:09;;;;;;;4.40;2.03;;;10.60;99.90;;;;;;5064938;22;20577;-74
2023/11/03 08:25:35;;;;;;;3.20;2.20;;;10.30;99.90;;;;;;5035120;28;20191;-74
2023/11/03 08:28:01;;;;;;;5.70;2.07;;;10.30;99.90;;;;;;5035101;28;20466;-73
2023/11/03 08:30:27;;;;;;;5.47;3.10;;;10.40;99.90;;;;;;5035399;28;20779;-74
2023/11/03 08:32:53;;;;;;;6.27;2.20;;;10.50;99.90;;;;;;5035095;28;20429;-73
2023/11/03 08:35:20;;;;;;;4.30;1.90;;;10.40;99.90;;;;;;5034799;28;20177;-74
2023/11/03 08:37:47;;;;;;;3.70;1.80;;;10.50;99.90;;;;;;5035197;28;20896;-74
2023/11/03 08:40:16;;;;;;;4.13;2.17;;;10.60;99.90;;;;;;5035087;28;20493;-74
2023/11/03 08:42:45;;;;;;;3.43;1.90;;;10.70;99.90;;;;;;5034867;28;20434;-75
2023/11/03 08:45:11;;;;;;;2.90;1.70;;;10.80;99.90;;;;;;5016991;28;20825;-74
2023/11/03 08:47:41;;;;;;;2.73;1.93;;;10.90;99.90;;;;;;5035234;28;20807;-74
2023/11/03 08:50:10;;;;;;;5.20;2.70;;;10.60;99.90;;;;;;5034811;28;20398;-74
2023/11/03 08:52:36;;;;;;;2.93;1.53;;;10.80;99.90;;;;;;5035281;28;20406;-74
2023/11/03 08:55:06;;;;;;;3.80;1.80;;;10.60;99.90;;;;;;5035233;28;20405;-74
2023/11/03 08:57:33;;;;;;;2.90;1.40;;;10.50;99.90;;;;;;5034170;28;20165;-74
2023/11/03 08:59:59;;;;;;;2.57;1.40;;;10.40;99.90;;;;;;5035500;28;20400;-74
2023/11/03 09:02:24;;;;;;;3.03;1.73;;;10.50;99.90;;;;;;5017000;28;20464;-74
2023/11/03 09:04:50;;;;;;;4.93;2.27;;;10.50;99.90;;;;;;5034573;28;20197;-74
2023/11/03 09:07:16;;;;;;;4.63;1.60;;;10.60;99.90;;;;;;5034448;28;20579;-74
2023/11/03 09:09:41;;;;;;;2.27;1.33;;;10.80;99.90;;;;;;5035886;28;20256;-74
2023/11/03 09:12:07;;;;;;;3.70;1.73;;;11.00;99.90;;;;;;5036549;28;20168;-74
2023/11/03 09:14:33;;;;;;;5.50;1.47;;;11.10;99.90;;;;;;5035038;28;20191;-74
2023/11/03 09:16:59;;;;;;;2.33;1.30;;;10.80;99.90;;;;;;5035916;28;20309;-74
2023/11/03 09:19:24;;;;;;;4.90;1.40;;;10.70;99.90;;;;;;5017988;28;20904;-74
2023/11/03 09:21:50;;;;;;;2.93;1.10;;;10.40;99.90;;;;;;5035386;28;20519;-74
2023/11/03 09:24:15;;;;;;;2.97;1.43;;;10.20;99.90;;;;;;5016971;28;20715;-74
2023/11/03 09:26:41;;;;;;;5.70;1.67;;;10.30;99.90;;;;;;5034910;28;20168;-74
2023/11/03 09:29:06;;;;;;;4.53;1.53;;;10.40;99.90;;;;;;5034723;28;20163;-74
2023/11/03 09:31:32;;;;;;;3.20;1.90;;;10.60;99.90;;;;;;5016729;28;20171;-74
2023/11/03 09:33:58;;;;;;;2.10;1.10;;;10.40;99.90;;;;;;5033986;28;20506;-74
2023/11/03 09:36:23;;;;;;;3.20;1.43;;;10.50;99.90;;;;;;5033973;28;20225;-74
2023/11/03 09:38:49;;;;;;;1.83;1.27;;;10.50;99.90;;;;;;5033876;28;20171;-74
2023/11/03 09:41:15;;;;;;;2.50;1.27;;;10.80;99.90;;;;;;5033871;28;20177;-74
2023/11/03 09:43:42;;;;;;;7.50;1.40;;;10.80;99.90;;;;;;5033648;28;20595;-74
2023/11/03 09:46:08;;;;;;;2.40;1.60;;;10.80;99.90;;;;;;5033681;28;20191;-73
2023/11/03 09:48:34;;;;;;;6.40;1.67;;;10.70;99.90;;;;;;5033744;28;20860;-74
2023/11/03 09:51:06;;;;;;;3.30;1.60;;;10.80;99.90;;;;;;5033794;28;20171;-74
2023/11/03 09:53:34;;;;;;;1.83;1.30;;;10.90;99.90;;;;;;5033486;28;20669;-73
2023/11/03 09:56:02;;;;;;;1.80;1.13;;;10.90;99.90;;;;;;5033737;28;20463;-73
2023/11/03 09:58:30;;;;;;;3.30;1.17;;;11.10;99.90;;;;;;5033539;28;20496;-73
2023/11/03 10:00:55;;;;;;;2.43;1.60;;;10.90;99.90;;;;;;5033925;28;20925;-73
2023/11/03 10:03:21;;;;;;;2.30;1.40;;;11.20;99.90;;;;;;5033384;28;20521;-74
2023/11/03 10:05:46;;;;;;;2.40;1.20;;;11.30;99.90;;;;;;5015404;28;20216;-74
2023/11/03 10:08:17;;;;;;;2.83;1.10;;;11.40;99.90;;;;;;5033061;28;20638;-74
2023/11/03 10:10:45;;;;;;;2.37;1.70;;;11.30;99.90;;;;;;5015493;28;20169;-74
2023/11/03 10:13:11;;;;;;;5.70;1.83;;;11.20;99.90;;;;;;5033599;28;20418;-74
2023/11/03 10:15:40;;;;;;;2.50;1.30;;;11.50;99.90;;;;;;5033204;28;20417;-74
2023/11/03 10:18:07;;;;;;;1.40;0.90;;;11.60;99.90;;;;;;5033348;28;20172;-73
2023/11/03 10:20:32;;;;;;;3.30;1.40;;;11.50;99.90;;;;;;5033133;28;20442;-73
2023/11/03 10:22:58;;;;;;;3.53;2.17;;;11.30;99.90;;;;;;5033144;28;20962;-74
2023/11/03 10:25:26;;;;;;;2.00;1.57;;;11.40;99.90;;;;;;5033018;28;20277;-73
2023/11/03 10:27:55;;;;;;;1.93;1.00;;;11.30;99.90;;;;;;5033076;28;20405;-74
2023/11/03 10:30:24;;;;;;;1.80;1.10;;;11.40;99.90;;;;;;5034035;28;20407;-74
2023/11/03 10:32:51;;;;;;;2.10;1.23;;;11.60;99.90;;;;;;5034462;28;20916;-74
2023/11/03 10:35:16;;;;;;;3.10;0.97;;;11.70;99.90;;;;;;5033764;28;20410;-74
2023/11/03 10:37:43;;;;;;;2.70;0.90;;;11.60;99.90;;;;;;5033566;28;20175;-74
2023/11/03 10:40:15;;;;;;;3.60;0.97;;;11.40;99.90;;;;;;5033339;28;20250;-74
2023/11/03 10:42:51;;;;;;;1.93;1.10;;;11.70;99.90;;;;;;5033191;28;20382;-73
2023/11/03 10:45:20;;;;;;;2.17;1.30;;;11.70;99.90;;;;;;4995905;28;20454;-73
2023/11/03 10:48:13;;;;;;;2.03;0.97;;;11.80;99.90;;;;;;5013487;28;20929;-73
2023/11/03 10:50:49;;;;;;;1.77;1.00;;;11.70;99.90;;;;;;5013096;28;20443;-74
2023/11/03 10:53:19;;;;;;;1.63;1.20;;;11.80;99.90;;;;;;5017282;28;20411;-74
2023/11/03 10:56:10;;;;;;;7.00;1.20;;;11.70;99.90;;;;;;5032766;28;20407;-74
2023/11/03 10:58:37;;;;;;;2.77;1.10;;;11.50;99.90;;;;;;5033133;28;20387;-74
2023/11/03 11:01:26;;;;;;;1.93;1.10;;;11.50;99.90;;;;;;5032618;28;20437;-74
2023/11/03 11:04:06;;;;;;;1.97;1.03;;;11.70;99.90;;;;;;5032866;28;20420;-73
2023/11/03 11:06:40;;;;;;;1.77;1.17;;;11.80;99.90;;;;;;5033387;28;20478;-74
2023/11/03 11:09:23;;;;;;;2.30;0.90;;;11.80;99.90;;;;;;5032034;28;20430;-73
2023/11/03 11:11:49;;;;;;;1.77;0.80;;;11.90;99.90;;;;;;5032273;28;20744;-73
2023/11/03 11:14:21;;;;;;;2.50;0.70;;;11.90;99.90;;;;;;5032598;28;20473;-74
2023/11/03 11:16:46;;;;;;;2.40;1.00;;;12.00;99.90;;;;;;5032517;28;20180;-74
2023/11/03 11:19:14;;;;;;;1.73;1.10;;;11.70;99.90;;;;;;5032668;28;20402;-74
2023/11/03 11:21:48;;;;;;;3.00;1.20;;;11.80;99.90;;;;;;5036748;28;20164;-74
2023/11/03 11:24:20;;;;;;;2.60;1.00;;;11.70;99.90;;;;;;5018742;28;22423;-74
2023/11/03 11:26:46;;;;;;;1.40;0.83;;;11.50;99.90;;;;;;5036595;28;20400;-74
2023/11/03 11:29:26;;;;;;;1.27;0.90;;;11.60;99.90;;;;;;5036296;28;20413;-74
2023/11/03 11:31:52;;;;;;;1.23;0.90;;;11.80;99.90;;;;;;5036458;28;20451;-74
2023/11/03 11:34:20;;;;;;;1.30;0.90;;;11.80;99.90;;;;;;5035879;28;20508;-74
2023/11/03 11:36:47;;;;;;;1.50;0.90;;;11.70;99.90;;;;;;5036601;28;20904;-74
2023/11/03 11:39:17;;;;;;;1.57;0.80;;;11.80;99.90;;;;;;5036256;28;20553;-74
2023/11/03 11:41:54;;;;;;;1.90;0.70;;;12.10;99.90;;;;;;5036781;28;20465;-73
2023/11/03 11:44:25;;;;;;;2.30;0.80;;;12.00;99.90;;;;;;5036058;28;20448;-73
2023/11/03 11:46:56;;;;;;;1.00;0.80;;;12.20;99.90;;;;;;5036086;28;20489;-74
2023/11/03 11:49:23;;;;;;;4.00;0.70;;;12.40;99.90;;;;;;5018473;28;20961;-74
2023/11/03 11:51:51;;;;;;;1.03;0.77;;;12.00;99.90;;;;;;5036007;28;20413;-74
2023/11/03 11:54:20;;;;;;;1.40;0.60;;;12.00;99.90;;;;;;5036250;28;20428;-73
2023/11/03 11:56:47;;;;;;;1.00;0.60;;;12.00;99.90;;;;;;5035986;28;20428;-73
2023/11/03 11:59:16;;;;;;;1.20;0.70;;;11.90;99.90;;;;;;5035981;28;20424;-74
2023/11/03 12:01:43;;;;;;;1.00;0.90;;;11.80;99.90;;;;;;5035808;28;20491;-74
2023/11/03 12:04:11;;;;;;;1.17;0.77;;;12.10;99.90;;;;;;5035644;28;20868;-74
2023/11/03 12:06:38;;;;;;;2.70;0.73;;;12.20;99.90;;;;;;5035792;28;20410;-74
2023/11/03 12:09:03;;;;;;;1.77;0.90;;;12.20;99.90;;;;;;5035584;28;20456;-74
2023/11/03 12:11:29;;;;;;;0.80;0.60;;;12.10;99.90;;;;;;5035897;28;20421;-74
2023/11/03 12:13:56;;;;;;;1.60;0.70;;;12.00;99.90;;;;;;5035744;28;20225;-74
2023/11/03 12:16:22;;;;;;;1.00;0.70;;;12.10;99.90;;;;;;5035657;28;20203;-74
2023/11/03 12:18:51;;;;;;;3.10;0.70;;;12.00;99.90;;;;;;5035659;28;20409;-74
2023/11/03 12:21:17;;;;;;;1.43;0.57;;;12.30;99.90;;;;;;5035908;28;20401;-74
2023/11/03 12:23:43;;;;;;;1.00;0.70;;;12.50;99.90;;;;;;5035236;28;20453;-74
2023/11/03 12:26:11;;;;;;;1.43;0.80;;;12.70;99.90;;;;;;5035750;28;20947;-74
2023/11/03 12:28:38;;;;;;;1.10;0.67;;;12.80;99.90;;;;;;5035454;28;20170;-74
2023/11/03 12:31:04;;;;;;;2.20;0.90;;;12.50;99.90;;;;;;5035476;28;20918;-73
2023/11/03 12:33:31;;;;;;;1.20;0.60;;;12.20;99.90;;;;;;5035733;28;20441;-74
2023/11/03 12:35:57;;;;;;;0.90;0.60;;;12.10;99.90;;;;;;5036327;28;20416;-74
2023/11/03 12:38:23;;;;;;;1.10;0.60;;;11.90;99.90;;;;;;5017388;28;20422;-74
2023/11/03 12:40:50;;;;;;;2.23;0.70;;;12.00;99.90;;;;;;5035912;28;20213;-74
2023/11/03 12:43:16;;;;;;;1.20;0.67;;;12.20;99.90;;;;;;5036556;28;20420;-73
2023/11/03 12:45:44;;;;;;;2.37;1.10;;;12.10;99.90;;;;;;5017326;28;20524;-75
2023/11/03 12:48:23;;;;;;;3.70;0.93;;;12.10;99.90;;;;;;5035959;28;20751;-74
2023/11/03 12:50:55;;;;;;;1.80;0.70;;;12.30;99.90;;;;;;5035257;28;20407;-74